PWSweather.com
Personal Weather Stations
Station Observations
KVAGLENALL
West Henrico, Glen Allen, VA 23060-6503

West HenricoGlen Allen, VA 23060-6503

Lat: 37.6554, Lon: -77.5693

Elevation: 273

Station Type: Davis Vantage Pro II

www.glenallenweather.com

High Low Average
Temperature 46.0°F7.8°C 37.3°F2.9°C 41.0°F5.0°C
Dew Point 38.1°F3.4°C 26.6°F-3.0°C 32.2°F0.1°C
Winds 13.0 mph 20.9 kmh 1.0 mph 1.6 kmh 6.0 mph SE9.7 kmh SE
Wind Gusts 16.2 mph26.1 kmh 5.1 mph8.2 kmh 11.0 mph17.7 kmh
Humidity 87% 65% 71%
Pressure 30.27 in1025.1 mb 29.98 in1015.2 mb -
Precipitation 0.00 in0.0 mm - -
Hour Temp Dew Point Humidity Winds Wind Gusts Pressure Precip Precip Rate Daily Precip Total
12:00 AM 38.9°F3.8°C 28.2°F-2.1°C 65% 6.0 mph NNW9.7 kmh NNW 10.1 mph16.3 kmh 30.27 in1025.1 mb 0.00 in0.0 mm 0.00 in0.0 mm 0.00 in0.0 mm
01:00 AM 38.7°F3.7°C 28.7°F-1.8°C 67% 11.0 mph NE17.7 kmh NE 12.1 mph19.5 kmh 30.24 in1024.0 mb 0.00 in0.0 mm 0.00 in0.0 mm 0.00 in0.0 mm
02:00 AM 38.7°F3.7°C 28.7°F-1.8°C 67% 9.0 mph NNE14.5 kmh NNE 12.1 mph19.5 kmh 30.24 in1024.0 mb 0.00 in0.0 mm 0.00 in0.0 mm 0.00 in0.0 mm
03:00 AM 38.4°F3.6°C 28.4°F-2.0°C 67% 5.0 mph NNE8.0 kmh NNE 10.1 mph16.3 kmh 30.22 in1023.4 mb 0.00 in0.0 mm 0.00 in0.0 mm 0.00 in0.0 mm
03:30 AM 38.2°F3.4°C 27.9°F-2.3°C 66% 1.0 mph NW1.6 kmh NW 12.1 mph19.5 kmh 30.21 in1023.0 mb 0.00 in0.0 mm 0.00 in0.0 mm 0.00 in0.0 mm
04:15 AM 37.9°F3.3°C 27.2°F-2.7°C 65% 3.0 mph N4.8 kmh N 10.1 mph16.3 kmh 30.21 in1023.0 mb 0.00 in0.0 mm 0.00 in0.0 mm 0.00 in0.0 mm
05:00 AM 37.7°F3.2°C 27.4°F-2.6°C 66% 11.0 mph N17.7 kmh N 12.1 mph19.5 kmh 30.21 in1023.0 mb 0.00 in0.0 mm 0.00 in0.0 mm 0.00 in0.0 mm
06:00 AM 37.5°F3.1°C 26.8°F-2.9°C 65% 13.0 mph NNE20.9 kmh NNE 16.2 mph26.1 kmh 30.20 in1022.7 mb 0.00 in0.0 mm 0.00 in0.0 mm 0.00 in0.0 mm
06:30 AM 37.3°F2.9°C 26.6°F-3.0°C 65% 5.0 mph NNE8.0 kmh NNE 14.1 mph22.7 kmh 30.20 in1022.7 mb 0.00 in0.0 mm 0.00 in0.0 mm 0.00 in0.0 mm
07:30 AM 37.4°F3.0°C 28.2°F-2.1°C 69% 6.0 mph NE9.7 kmh NE 15.1 mph24.3 kmh 30.20 in1022.7 mb 0.00 in0.0 mm 0.00 in0.0 mm 0.00 in0.0 mm
08:30 AM 37.9°F3.3°C 29.0°F-1.7°C 70% 5.0 mph N8.0 kmh N 13.1 mph21.1 kmh 30.22 in1023.4 mb 0.00 in0.0 mm 0.00 in0.0 mm 0.00 in0.0 mm
09:30 AM 38.7°F3.7°C 30.1°F-1.1°C 71% 11.0 mph NE17.7 kmh NE 13.1 mph21.1 kmh 30.21 in1023.0 mb 0.00 in0.0 mm 0.00 in0.0 mm 0.00 in0.0 mm
10:30 AM 40.8°F4.9°C 31.8°F-0.1°C 70% 6.0 mph N9.7 kmh N 15.1 mph24.3 kmh 30.20 in1022.7 mb 0.00 in0.0 mm 0.00 in0.0 mm 0.00 in0.0 mm
11:30 AM 43.5°F6.4°C 32.9°F0.5°C 66% 6.0 mph NNE9.7 kmh NNE 14.1 mph22.7 kmh 30.17 in1021.7 mb 0.00 in0.0 mm 0.00 in0.0 mm 0.00 in0.0 mm
12:30 PM 44.6°F7.0°C 34.4°F1.3°C 67% 8.0 mph NNE12.9 kmh NNE 14.1 mph22.7 kmh 30.13 in1020.3 mb 0.00 in0.0 mm 0.00 in0.0 mm 0.00 in0.0 mm
01:30 PM 45.3°F7.4°C 35.8°F2.1°C 69% 3.0 mph N4.8 kmh N 8.1 mph13.0 kmh 30.10 in1019.3 mb 0.00 in0.0 mm 0.00 in0.0 mm 0.00 in0.0 mm
02:30 PM 46.0°F7.8°C 36.4°F2.4°C 69% 4.0 mph N6.4 kmh N 10.1 mph16.3 kmh 30.08 in1018.6 mb 0.00 in0.0 mm 0.00 in0.0 mm 0.00 in0.0 mm
03:30 PM 45.9°F7.7°C 36.4°F2.4°C 69% 2.0 mph N3.2 kmh N 5.1 mph8.2 kmh 30.06 in1017.9 mb 0.00 in0.0 mm 0.00 in0.0 mm 0.00 in0.0 mm
04:30 PM 44.9°F7.2°C 36.5°F2.5°C 72% 8.0 mph NNW12.9 kmh NNW 8.1 mph13.0 kmh 30.06 in1017.9 mb 0.00 in0.0 mm 0.00 in0.0 mm 0.00 in0.0 mm
05:30 PM 44.1°F6.7°C 35.7°F2.1°C 72% 5.0 mph NE8.0 kmh NE 9.1 mph14.6 kmh 30.05 in1017.6 mb 0.00 in0.0 mm 0.00 in0.0 mm 0.00 in0.0 mm
06:30 PM 43.5°F6.4°C 35.8°F2.1°C 74% 4.0 mph NNE6.4 kmh NNE 10.1 mph16.3 kmh 30.05 in1017.6 mb 0.00 in0.0 mm 0.00 in0.0 mm 0.00 in0.0 mm
07:30 PM 42.8°F6.0°C 36.1°F2.3°C 77% 6.0 mph N9.7 kmh N 9.1 mph14.6 kmh 30.03 in1016.9 mb 0.00 in0.0 mm 0.00 in0.0 mm 0.00 in0.0 mm
08:30 PM 42.6°F5.9°C 36.9°F2.7°C 80% 5.0 mph N8.0 kmh N 10.1 mph16.3 kmh 30.02 in1016.6 mb 0.00 in0.0 mm 0.00 in0.0 mm 0.00 in0.0 mm
09:30 PM 42.1°F5.6°C 37.6°F3.1°C 84% 6.0 mph N9.7 kmh N 9.1 mph14.6 kmh 30.01 in1016.3 mb 0.00 in0.0 mm 0.00 in0.0 mm 0.00 in0.0 mm
10:30 PM 41.7°F5.4°C 38.1°F3.4°C 87% 3.0 mph NNE4.8 kmh NNE 7.1 mph11.4 kmh 29.99 in1015.6 mb 0.00 in0.0 mm 0.00 in0.0 mm 0.00 in0.0 mm
11:30 PM 41.7°F5.4°C 36.6°F2.6°C 82% 3.0 mph NE4.8 kmh NE 9.1 mph14.6 kmh 29.98 in1015.2 mb 0.00 in0.0 mm 0.00 in0.0 mm 0.00 in0.0 mm